createdAt,value
2023-03-23T16:02:38.052Z,91.37
2023-03-23T16:07:39.599Z,89.70
2023-03-23T16:12:41.175Z,87.17
2023-03-23T16:17:42.974Z,85.68
2023-03-23T16:22:44.469Z,84.24
2023-03-23T16:27:51.691Z,83.63
2023-03-23T16:32:55.508Z,83.75
2023-03-23T16:38:07.249Z,84.16
2023-03-23T16:43:10.797Z,81.46
2023-03-23T16:48:13.587Z,81.72
2023-03-23T16:53:16.188Z,81.06
2023-03-23T16:58:18.316Z,81.25
2023-03-23T17:03:21.051Z,79.82
2023-03-23T17:08:22.492Z,79.59
2023-03-23T17:13:25.630Z,77.65
2023-03-23T17:18:28.973Z,77.71
2023-03-23T17:23:30.679Z,77.31
2023-03-23T17:28:32.279Z,76.83
2023-03-23T17:33:33.866Z,76.53
2023-03-23T17:38:35.595Z,77.24
2023-03-23T17:43:39.353Z,77.98
2023-03-23T17:48:41.321Z,78.36
2023-03-23T17:53:42.738Z,79.45
2023-03-23T17:58:44.377Z,79.44
2023-03-23T18:03:46.228Z,80.24
2023-03-23T18:08:47.676Z,80.91
2023-03-23T18:13:49.078Z,81.58
2023-03-23T18:18:50.535Z,81.14
2023-03-23T18:23:59.161Z,82.68
2023-03-23T18:29:01.616Z,82.23
2023-03-23T18:34:02.999Z,81.61
2023-03-23T18:39:05.634Z,81.31
2023-03-23T18:44:07.306Z,81.77
2023-03-23T18:49:08.739Z,81.51
2023-03-23T18:54:10.158Z,82.26
2023-03-23T18:59:11.612Z,81.86
2023-03-23T19:04:13.516Z,80.97
2023-03-23T19:09:15.455Z,81.08
2023-03-23T19:14:18.089Z,80.53
2023-03-23T19:19:19.992Z,80.80
2023-03-23T19:24:21.509Z,81.45
2023-03-23T19:29:26.976Z,81.04
2023-03-23T19:34:30.099Z,81.49
2023-03-23T19:39:31.678Z,81.69
2023-03-23T19:44:34.280Z,82.88
2023-03-23T19:49:36.098Z,82.50
2023-03-23T19:54:38.376Z,81.92
2023-03-23T19:59:39.836Z,81.81
2023-03-23T20:04:41.571Z,81.66
2023-03-23T20:09:43.111Z,81.33
2023-03-23T20:14:45.413Z,81.45
2023-03-23T20:19:46.988Z,81.28
2023-03-23T20:24:49.426Z,80.42
2023-03-23T20:29:52.231Z,79.76
2023-03-23T20:34:53.654Z,80.06
2023-03-23T20:39:55.321Z,79.92
2023-03-23T20:44:57.056Z,80.27
2023-03-23T20:49:58.620Z,79.38
2023-03-23T20:55:00.837Z,80.91
2023-03-23T21:00:06.391Z,81.95
2023-03-23T21:05:08.948Z,82.96
2023-03-23T21:10:10.518Z,84.21
2023-03-23T21:15:12.091Z,83.25
2023-03-23T21:20:13.703Z,83.08
2023-03-23T21:25:15.215Z,82.32
2023-03-23T21:30:16.661Z,82.73
2023-03-23T21:35:18.018Z,83.54
2023-03-23T21:40:20.504Z,84.65
2023-03-23T21:45:21.940Z,84.67
2023-03-23T21:50:24.306Z,85.90
2023-03-23T21:55:30.895Z,87.58
2023-03-23T22:00:36.818Z,89.23
2023-03-23T22:05:47.222Z,90.00
2023-03-23T22:11:07.425Z,92.89
2023-03-23T22:16:18.654Z,95.19
2023-03-23T22:21:26.708Z,96.74
2023-03-23T22:26:32.244Z,98.77
2023-03-23T22:31:40.873Z,100.00
2023-03-23T22:36:49.743Z,100.00
2023-03-23T22:41:55.872Z,100.00
2023-03-23T22:47:02.049Z,100.00
2023-03-23T22:52:17.544Z,100.00
2023-03-23T22:57:21.162Z,100.00
2023-03-23T23:02:27.260Z,100.00
2023-03-23T23:07:33.364Z,100.00
2023-03-23T23:12:41.536Z,100.00
2023-03-23T23:17:44.631Z,100.00
2023-03-23T23:22:50.512Z,100.00
2023-03-23T23:27:52.346Z,100.00
2023-03-23T23:32:54.089Z,100.00
2023-03-23T23:37:55.826Z,100.00
2023-03-23T23:42:59.001Z,100.00
2023-03-23T23:48:00.508Z,100.00
2023-03-23T23:53:01.961Z,100.00
2023-03-23T23:58:04.654Z,100.00
